Time;durP1;ratioP1;P1;durP2;ratioP2;P2;SDS_P1;SDS_P2;PMS_P1;PMS_P2;Temp;Humidity;BMP_temperature;BMP_pressure;BME280_temperature;BME280_humidity;BME280_pressure;Samples;Min_cycle;Max_cycle;Signal;HPM_P1;HPM_P2
2023/07/17 07:24:25;;;;;;;8.55;3.35;;;;;;;17.21;69.21;101713.78;4955406;23;20054;-94
2023/07/17 07:29:26;;;;;;;9.38;3.65;;;;;;;17.25;69.27;101718.03;5022125;23;20046;-96
2023/07/17 07:31:52;;;;;;;7.78;3.15;;;;;;;17.25;69.06;101723.28;4992577;28;20046;-91
2023/07/17 07:34:17;;;;;;;10.10;3.13;;;;;;;17.32;69.07;101721.25;4994617;28;20026;-93
2023/07/17 07:37:02;;;;;;;8.00;3.15;;;;;;;17.36;69.71;101726.31;4997085;28;20498;-94
2023/07/17 07:39:28;;;;;;;7.68;3.00;;;;;;;17.38;68.04;101719.22;4997590;28;20026;-94
2023/07/17 07:44:34;;;;;;;8.82;3.40;;;;;;;17.50;68.51;101727.53;5314599;23;20117;-95
2023/07/17 07:47:00;;;;;;;5.07;2.70;;;;;;;17.57;66.87;101726.38;4978781;28;20038;-94
2023/07/17 07:49:25;;;;;;;6.38;2.90;;;;;;;17.58;66.89;101731.56;5021673;23;20021;-94
2023/07/17 07:51:50;;;;;;;7.47;2.88;;;;;;;17.62;67.94;101731.44;4975383;28;20127;-90
2023/07/17 07:58:34;;;;;;;8.85;3.25;;;;;;;17.71;65.82;101741.56;5425215;23;20073;-92
2023/07/17 08:00:28;;;;;;;5.80;2.60;;;;;;;17.69;65.86;101739.03;4967361;28;20432;-91
2023/07/17 08:02:54;;;;;;;5.30;2.83;;;;;;;17.68;65.71;101749.59;4973740;28;20014;-89
2023/07/17 08:05:21;;;;;;;7.32;2.78;;;;;;;17.64;65.43;101743.59;4972683;28;20380;-95
2023/07/17 08:10:58;;;;;;;5.28;2.58;;;;;;;17.48;65.40;101746.03;4984287;28;20034;-91
2023/07/17 08:13:23;;;;;;;6.10;2.50;;;;;;;17.51;66.57;101750.28;4972649;28;20046;-90
2023/07/17 08:15:49;;;;;;;6.20;2.80;;;;;;;17.58;65.64;101754.41;4973905;28;20034;-91
2023/07/17 08:18:15;;;;;;;6.45;2.72;;;;;;;17.69;64.93;101752.19;4973032;28;20015;-91
2023/07/17 08:20:40;;;;;;;6.70;2.65;;;;;;;17.78;64.30;101747.44;4974961;28;20391;-93
2023/07/17 08:23:06;;;;;;;6.15;2.95;;;;;;;17.86;64.66;101740.94;4974401;28;20053;-94
2023/07/17 08:25:33;;;;;;;5.95;2.60;;;;;;;17.94;64.54;101745.03;4981180;28;20472;-94
2023/07/17 08:27:59;;;;;;;8.02;2.90;;;;;;;18.00;63.19;101753.56;4972625;28;20027;-93
2023/07/17 08:31:35;;;;;;;;;;;;;;;;;;;;;
2023/07/17 08:34:44;;;;;;;;;;;;;;;;;;;;;
2023/07/17 08:37:12;;;;;;;6.90;2.78;;;;;;;18.26;63.61;101742.81;4901560;29;20029;-91
2023/07/17 08:39:39;;;;;;;4.93;2.78;;;;;;;18.29;62.56;101743.53;4872746;29;20068;-95
2023/07/17 08:42:05;;;;;;;6.00;2.65;;;;;;;18.37;62.75;101750.25;4872581;29;20083;-92
2023/07/17 08:44:31;;;;;;;5.72;2.70;;;;;;;18.42;60.31;101753.53;4893119;28;20049;-90
2023/07/17 08:47:15;;;;;;;7.10;2.78;;;;;;;18.50;62.69;101760.19;4966075;28;20356;-95
2023/07/17 08:52:34;;;;;;;6.93;2.85;;;;;;;18.65;60.91;101753.34;5034410;23;20395;-96
2023/07/17 08:55:29;;;;;;;5.60;2.63;;;;;;;18.72;60.24;101761.00;5067744;23;20995;-96
2023/07/17 08:58:04;;;;;;;5.47;2.50;;;;;;;18.77;60.20;101764.28;4936677;28;20059;-95
2023/07/17 09:00:32;;;;;;;6.20;2.78;;;;;;;18.83;60.21;101758.72;4952197;28;20026;-95
2023/07/17 09:02:58;;;;;;;6.00;2.50;;;;;;;18.87;58.52;101752.38;4952578;28;20026;-92
2023/07/17 09:05:24;;;;;;;6.97;2.75;;;;;;;18.81;60.25;101755.28;4970515;28;20084;-92
2023/07/17 09:07:49;;;;;;;6.07;2.70;;;;;;;18.86;60.36;101763.84;4966323;28;20136;-91
2023/07/17 09:10:27;;;;;;;7.40;2.63;;;;;;;18.93;59.72;101752.09;4969380;28;20034;-95
2023/07/17 09:12:59;;;;;;;6.45;2.47;;;;;;;19.01;59.31;101762.31;4963074;28;20349;-94
2023/07/17 09:15:28;;;;;;;5.72;2.55;;;;;;;19.11;58.85;101757.47;4965832;28;20121;-93
2023/07/17 09:17:53;;;;;;;6.85;2.58;;;;;;;19.10;57.58;101768.94;4966996;28;20023;-93
2023/07/17 09:20:20;;;;;;;9.48;2.85;;;;;;;19.05;57.45;101769.13;4967196;28;20030;-92
2023/07/17 09:22:46;;;;;;;6.82;3.10;;;;;;;19.03;56.50;101770.16;4966382;28;20031;-91
2023/07/17 09:25:13;;;;;;;9.77;2.80;;;;;;;19.10;57.08;101771.59;4964054;28;20062;-93
2023/07/17 09:27:57;;;;;;;7.15;2.58;;;;;;;19.07;57.52;101761.19;4968940;28;20050;-95
2023/07/17 09:30:32;;;;;;;5.75;2.20;;;;;;;19.04;56.27;101771.88;4966436;28;20031;-95
2023/07/17 09:33:05;;;;;;;5.50;2.35;;;;;;;19.03;57.52;101765.75;4953294;28;20039;-91
2023/07/17 09:35:30;;;;;;;6.30;2.38;;;;;;;19.00;55.62;101768.53;4969315;28;20121;-94
2023/07/17 09:37:55;;;;;;;5.10;2.15;;;;;;;18.94;56.05;101759.13;4965915;28;20110;-92
2023/07/17 09:40:21;;;;;;;5.97;2.33;;;;;;;18.91;57.19;101772.41;4963187;28;20220;-94
2023/07/17 09:42:54;;;;;;;6.53;2.33;;;;;;;18.88;58.05;101767.28;4963104;28;20051;-93
2023/07/17 09:45:20;;;;;;;6.97;2.50;;;;;;;18.86;57.16;101763.84;4961068;28;20105;-92
2023/07/17 09:47:52;;;;;;;5.68;2.45;;;;;;;18.93;58.03;101759.13;4962686;28;20381;-91
2023/07/17 09:50:19;;;;;;;5.60;2.47;;;;;;;18.96;57.15;101756.41;4950904;28;20491;-94
2023/07/17 09:53:15;;;;;;;;;;;;;;;;;;;;;
2023/07/17 09:56:14;;;;;;;5.70;2.22;;;;;;;19.02;56.74;101765.81;4969112;28;20468;-95
2023/07/17 09:59:15;;;;;;;5.18;2.28;;;;;;;19.01;58.02;101766.72;4968994;28;20142;-94
2023/07/17 10:01:47;;;;;;;4.50;2.03;;;;;;;18.98;55.75;101770.38;4963415;28;20034;-95
2023/07/17 10:04:31;;;;;;;7.70;2.15;;;;;;;19.05;56.96;101768.31;4961069;28;20294;-94
2023/07/17 10:10:40;;;;;;;4.88;2.05;;;;;;;19.35;53.64;101770.41;5030981;23;21806;-96
2023/07/17 10:13:07;;;;;;;7.65;2.10;;;;;;;19.34;52.36;101772.19;4964874;28;20395;-93
2023/07/17 10:15:34;;;;;;;4.38;2.00;;;;;;;19.27;52.39;101768.13;4946717;28;20385;-93
2023/07/17 10:18:36;;;;;;;4.90;1.90;;;;;;;19.30;54.27;101772.44;4961129;28;20086;-95
2023/07/17 10:21:08;;;;;;;4.30;1.67;;;;;;;19.45;53.77;101769.03;4957486;28;20053;-95
2023/07/17 10:27:12;;;;;;;4.43;1.75;;;;;;;19.49;52.35;101777.66;4868022;29;20040;-96
2023/07/17 10:29:42;;;;;;;4.13;1.75;;;;;;;19.39;51.60;101774.63;4884016;29;20044;-96
2023/07/17 10:32:25;;;;;;;;;;;;;;;;;;;;;
2023/07/17 10:34:52;;;;;;;5.00;1.80;;;;;;;19.45;52.13;101766.41;4961938;28;20390;-94
2023/07/17 10:37:40;;;;;;;4.85;1.90;;;;;;;19.52;53.02;101773.09;4944987;28;20107;-94
2023/07/17 10:40:07;;;;;;;5.40;1.90;;;;;;;19.59;52.90;101771.00;4962589;28;20503;-93
2023/07/17 10:43:04;;;;;;;5.03;2.00;;;;;;;19.63;51.85;101766.44;4945709;28;20037;-95
2023/07/17 10:45:37;;;;;;;3.67;1.80;;;;;;;19.62;51.73;101773.50;4962324;28;20066;-94
2023/07/17 10:48:04;;;;;;;4.18;1.80;;;;;;;19.58;50.79;101768.44;4944478;28;20099;-93
2023/07/17 10:50:29;;;;;;;5.63;2.00;;;;;;;19.54;51.38;101780.94;4944484;28;20517;-93
2023/07/17 10:53:11;;;;;;;5.18;2.03;;;;;;;19.53;52.00;101766.88;4970522;28;20024;-96
2023/07/17 10:55:36;;;;;;;4.40;1.80;;;;;;;19.61;50.21;101776.22;4965850;28;20396;-93
2023/07/17 10:58:02;;;;;;;5.00;1.90;;;;;;;19.71;50.61;101777.47;4966873;28;20031;-90
2023/07/17 11:00:30;;;;;;;5.25;1.95;;;;;;;19.83;50.35;101770.72;4964278;28;20426;-94
2023/07/17 11:02:56;;;;;;;4.07;2.08;;;;;;;19.93;49.64;101777.25;4969909;28;20022;-93
2023/07/17 11:05:24;;;;;;;5.28;2.03;;;;;;;19.87;50.08;101772.31;4951127;28;20361;-94
2023/07/17 11:07:49;;;;;;;5.30;1.98;;;;;;;19.78;50.38;101770.09;4955220;28;20022;-93
2023/07/17 11:14:28;;;;;;;6.40;2.53;;;;;;;19.83;51.66;101771.56;5071010;23;20495;-95
2023/07/17 11:17:07;;;;;;;;;;;;;;;;;;;;;
2023/07/17 11:19:33;;;;;;;4.07;2.30;;;;;;;19.93;50.06;101765.88;4986670;28;20042;-93
2023/07/17 11:21:58;;;;;;;5.22;2.53;;;;;;;20.00;50.26;101762.81;4957088;28;20431;-93
2023/07/17 11:24:32;;;;;;;6.68;2.40;;;;;;;20.05;51.21;101754.66;4972640;28;20018;-94
2023/07/17 11:27:09;;;;;;;4.25;2.10;;;;;;;20.14;51.23;101761.25;4971739;28;20121;-92
2023/07/17 11:29:40;;;;;;;6.60;2.38;;;;;;;20.19;50.59;101758.38;4951432;28;20034;-90
2023/07/17 11:32:06;;;;;;;7.63;2.70;;;;;;;20.19;49.63;101756.59;4970417;28;20034;-94
2023/07/17 11:34:35;;;;;;;5.53;2.40;;;;;;;20.22;49.37;101755.56;4973512;28;20027;-91
2023/07/17 11:37:00;;;;;;;4.50;2.30;;;;;;;20.26;50.95;101757.13;4965718;28;20031;-91
2023/07/17 11:39:33;;;;;;;6.60;2.40;;;;;;;20.30;49.22;101763.97;4951311;28;20093;-92
2023/07/17 11:42:01;;;;;;;9.38;2.40;;;;;;;20.37;49.20;101765.34;4951892;28;20050;-93
2023/07/17 11:44:35;;;;;;;4.57;2.00;;;;;;;20.45;49.18;101757.88;4969698;28;20450;-92
2023/07/17 11:47:13;;;;;;;;;;;;;;;;;;;;;
2023/07/17 11:49:44;;;;;;;5.63;2.13;;;;;;;20.55;48.13;101762.66;4966593;28;20475;-93
2023/07/17 11:52:18;;;;;;;5.03;2.20;;;;;;;20.60;47.91;101765.91;4966774;28;20034;-91
2023/07/17 11:54:44;;;;;;;7.43;2.72;;;;;;;20.62;46.82;101774.63;4948671;28;20065;-93
2023/07/17 11:57:12;;;;;;;4.18;2.20;;;;;;;20.59;48.24;101765.06;4967129;28;20054;-92
2023/07/17 11:59:45;;;;;;;4.70;2.30;;;;;;;20.61;49.21;101762.34;4965731;28;20054;-92
2023/07/17 12:02:12;;;;;;;3.83;2.10;;;;;;;20.65;48.25;101769.19;4966708;28;20041;-92
2023/07/17 12:04:40;;;;;;;4.20;2.25;;;;;;;20.66;48.22;101762.97;4953623;28;20035;-93
2023/07/17 12:07:15;;;;;;;5.32;2.22;;;;;;;20.66;47.90;101760.31;4952609;28;20026;-91
2023/07/17 12:09:41;;;;;;;6.47;2.78;;;;;;;20.68;48.77;101762.88;4952671;28;20478;-88
2023/07/17 12:12:19;;;;;;;;;;;;;;;;;;;;;
2023/07/17 12:14:46;;;;;;;6.18;2.55;;;;;;;20.79;49.93;101767.59;4965201;28;20026;-91
2023/07/17 12:17:12;;;;;;;6.88;2.60;;;;;;;20.87;49.56;101768.03;4964044;28;20073;-91
2023/07/17 12:19:38;;;;;;;7.50;2.70;;;;;;;20.88;48.75;101764.44;4980146;28;20510;-91
2023/07/17 12:22:03;;;;;;;8.63;2.60;;;;;;;20.89;48.73;101761.72;4948844;28;20068;-91
2023/07/17 12:24:30;;;;;;;5.18;2.85;;;;;;;20.91;48.75;101759.88;4949388;28;20468;-91
2023/07/17 12:26:56;;;;;;;6.32;2.40;;;;;;;20.87;48.06;101768.03;4948128;28;20093;-92
2023/07/17 12:29:35;;;;;;;6.15;2.95;;;;;;;20.80;48.32;101766.69;4966165;28;20031;-92
2023/07/17 12:32:00;;;;;;;7.80;2.97;;;;;;;20.79;48.01;101770.25;4948077;28;20022;-91
2023/07/17 12:34:25;;;;;;;4.40;2.60;;;;;;;20.82;48.36;101764.81;4950172;28;20037;-91
2023/07/17 12:36:51;;;;;;;5.45;2.42;;;;;;;20.87;48.30;101754.81;4979893;28;20023;-92
2023/07/17 12:39:41;;;;;;;6.32;2.70;;;;;;;20.96;49.19;101750.78;4947907;28;20065;-94
2023/07/17 12:42:06;;;;;;;4.72;2.33;;;;;;;21.04;47.58;101753.88;4950192;28;20125;-91
2023/07/17 12:44:33;;;;;;;4.90;2.50;;;;;;;21.11;47.59;101749.09;4966520;28;20082;-93
2023/07/17 12:46:59;;;;;;;7.20;2.72;;;;;;;21.15;46.80;101750.66;4980008;28;20057;-92
2023/07/17 12:49:58;;;;;;;4.75;2.20;;;;;;;21.15;48.47;101750.66;4965974;28;20030;-93
2023/07/17 12:52:43;;;;;;;4.45;2.50;;;;;;;21.14;48.51;101743.66;4934434;28;20493;-95
2023/07/17 12:55:08;;;;;;;4.57;2.13;;;;;;;21.17;47.83;101744.31;4953877;28;20038;-91
2023/07/17 12:57:35;;;;;;;4.47;2.30;;;;;;;21.22;48.29;101744.91;4978337;28;20062;-91
2023/07/17 13:00:00;;;;;;;5.82;2.45;;;;;;;21.28;48.40;101746.34;4948398;28;20536;-90
2023/07/17 13:02:27;;;;;;;5.80;2.47;;;;;;;21.33;48.58;101749.59;4967289;28;20500;-93
2023/07/17 13:04:54;;;;;;;5.57;2.30;;;;;;;21.45;48.29;101750.66;4969525;28;20396;-94
2023/07/17 13:07:35;;;;;;;6.00;2.28;;;;;;;21.59;47.38;101751.69;4950369;28;20467;-94
2023/07/17 13:12:30;;;;;;;5.22;2.10;;;;;;;21.74;46.66;101737.59;4972550;23;20132;-90
2023/07/17 13:14:56;;;;;;;4.68;2.20;;;;;;;21.85;44.96;101747.56;4968296;28;21392;-90
2023/07/17 13:17:21;;;;;;;4.60;2.10;;;;;;;21.97;45.70;101772.44;4966292;28;20050;-88
2023/07/17 13:19:47;;;;;;;3.40;1.90;;;;;;;22.04;44.60;101754.38;4964994;28;20431;-89
2023/07/17 13:22:15;;;;;;;6.20;2.22;;;;;;;22.10;44.53;101746.06;4963316;28;20039;-91
2023/07/17 13:24:43;;;;;;;7.32;1.83;;;;;;;22.15;44.53;101746.66;4943272;28;20086;-93
2023/07/17 13:27:08;;;;;;;5.63;2.10;;;;;;;22.18;44.63;101751.78;4958806;28;20027;-91
2023/07/17 13:29:34;;;;;;;6.28;2.30;;;;;;;22.05;43.48;101754.31;4945268;28;21016;-89
2023/07/17 13:31:59;;;;;;;7.25;2.00;;;;;;;21.86;44.30;101759.84;4959396;28;20076;-91
2023/07/17 13:34:27;;;;;;;5.50;2.08;;;;;;;21.65;45.71;101776.06;4960362;28;20059;-93
2023/07/17 13:36:53;;;;;;;4.15;1.80;;;;;;;21.37;44.81;101801.41;4963432;28;20030;-95
2023/07/17 13:39:18;;;;;;;2.17;1.35;;;;;;;21.12;45.56;101788.69;4960875;28;20042;-93
2023/07/17 13:41:46;;;;;;;3.03;1.45;;;;;;;21.01;46.70;101775.22;4942737;28;20042;-90
2023/07/17 13:44:13;;;;;;;4.93;1.45;;;;;;;21.04;48.63;101764.47;4962557;28;20019;-91
2023/07/17 13:46:39;;;;;;;2.45;1.45;;;;;;;21.12;48.42;101767.53;4961655;28;20042;-91
2023/07/17 13:49:04;;;;;;;3.83;1.55;;;;;;;21.13;48.72;101777.16;4958681;28;20083;-93
2023/07/17 13:51:30;;;;;;;7.80;1.73;;;;;;;20.97;47.66;101774.53;4947423;28;20117;-92
2023/07/17 13:53:56;;;;;;;3.35;1.50;;;;;;;20.79;49.62;101780.84;4962279;28;20050;-93
2023/07/17 13:56:21;;;;;;;3.63;1.50;;;;;;;20.70;49.71;101782.97;4961928;28;20500;-91
2023/07/17 13:58:46;;;;;;;4.70;1.73;;;;;;;20.62;50.40;101772.81;4943196;28;20423;-93
2023/07/17 14:01:14;;;;;;;3.45;1.60;;;;;;;20.61;49.96;101781.69;4953273;28;20034;-96
2023/07/17 14:03:40;;;;;;;3.40;1.63;;;;;;;20.50;50.49;101777.91;4943925;28;20015;-90
2023/07/17 14:06:05;;;;;;;3.92;1.75;;;;;;;20.37;51.04;101781.19;4960976;28;20028;-92
2023/07/17 14:08:31;;;;;;;4.38;1.92;;;;;;;20.22;50.60;101782.88;4943721;28;21328;-87
2023/07/17 14:10:57;;;;;;;3.47;1.65;;;;;;;20.08;52.07;101791.50;4950624;28;20158;-93
2023/07/17 14:13:22;;;;;;;3.65;2.10;;;;;;;20.02;51.84;101802.34;4969278;28;20035;-92
2023/07/17 14:15:47;;;;;;;5.50;2.00;;;;;;;19.99;52.51;101803.38;4949536;28;20063;-91
2023/07/17 14:18:12;;;;;;;4.57;2.00;;;;;;;20.00;52.51;101810.38;4967000;28;20475;-89
2023/07/17 14:20:40;;;;;;;3.75;2.10;;;;;;;20.08;53.14;101817.91;4965790;28;20027;-95
2023/07/17 14:23:06;;;;;;;5.55;1.88;;;;;;;20.12;54.25;101816.81;4965635;28;20109;-94
2023/07/17 14:25:46;;;;;;;;;;;;;;;;;;;;;
2023/07/17 14:28:12;;;;;;;9.97;2.30;;;;;;;20.22;54.92;101816.34;4968433;28;20279;-93
2023/07/17 14:30:45;;;;;;;4.13;2.00;;;;;;;20.21;54.34;101820.78;4967644;28;20832;-95
2023/07/17 14:33:54;;;;;;;5.47;2.03;;;;;;;20.19;54.49;101829.72;4954253;28;20033;-95
2023/07/17 14:36:19;;;;;;;7.18;2.20;;;;;;;20.11;55.66;101833.59;4951515;28;20047;-94
2023/07/17 14:38:49;;;;;;;6.18;2.47;;;;;;;20.06;56.33;101832.97;4971526;28;20029;-94
2023/07/17 14:41:14;;;;;;;5.00;2.28;;;;;;;20.07;56.53;101837.34;4969100;28;20038;-95
2023/07/17 14:43:39;;;;;;;5.03;2.35;;;;;;;20.13;56.28;101833.53;4953551;28;20429;-91
2023/07/17 14:46:07;;;;;;;4.50;2.15;;;;;;;20.29;55.79;101823.03;4966572;28;20125;-95
2023/07/17 14:48:43;;;;;;;4.95;2.17;;;;;;;20.45;54.84;101825.72;4949766;28;20026;-94
2023/07/17 14:54:05;;;;;;;3.88;2.08;;;;;;;20.54;55.77;101834.97;5603405;23;20411;-92
2023/07/17 15:00:22;;;;;;;4.50;2.38;;;;;;;20.39;51.28;101834.84;4850411;29;20494;-93
2023/07/17 15:02:50;;;;;;;4.95;2.20;;;;;;;20.27;50.73;101853.97;4919022;29;20423;-94
2023/07/17 15:05:22;;;;;;;4.43;2.20;;;;;;;20.10;51.19;101846.88;4917748;28;20222;-93
2023/07/17 15:07:48;;;;;;;5.38;2.35;;;;;;;20.01;52.00;101849.06;4935004;29;20034;-91
2023/07/17 15:10:13;;;;;;;3.83;1.88;;;;;;;19.94;52.35;101849.44;4949570;28;20044;-91
2023/07/17 15:12:39;;;;;;;5.50;2.40;;;;;;;19.94;56.13;101860.00;4932920;29;20110;-93
2023/07/17 15:15:04;;;;;;;5.00;2.38;;;;;;;19.93;57.61;101856.50;4947411;28;20324;-92
2023/07/17 15:25:09;;;;;;;7.90;2.30;;;;;;;19.85;59.68;101853.34;4855914;29;20044;-95
2023/07/17 15:27:43;;;;;;;4.78;2.35;;;;;;;19.77;61.85;101860.78;4843112;29;20440;-94
2023/07/17 15:30:08;;;;;;;7.03;2.58;;;;;;;19.69;63.37;101853.22;4857608;29;20103;-95
2023/07/17 15:33:06;;;;;;;;;;;;;;;;;;;;;
2023/07/17 15:35:49;;;;;;;4.13;2.13;;;;;;;19.68;61.91;101844.47;4946661;29;20115;-96
2023/07/17 15:38:16;;;;;;;4.70;2.30;;;;;;;19.70;63.11;101839.09;4949843;28;20026;-92
2023/07/17 15:40:44;;;;;;;4.68;2.72;;;;;;;19.76;62.69;101838.81;4931344;29;20027;-93
2023/07/17 15:43:10;;;;;;;3.90;2.40;;;;;;;19.83;62.25;101839.38;4948761;28;20030;-93
2023/07/17 15:45:35;;;;;;;4.13;2.47;;;;;;;19.91;62.65;101831.09;4930167;29;20046;-93
2023/07/17 15:48:01;;;;;;;3.65;2.25;;;;;;;19.95;61.39;101835.31;4930845;29;20480;-93
2023/07/17 15:50:26;;;;;;;4.78;2.50;;;;;;;19.96;62.76;101826.47;4944655;28;20026;-93
2023/07/17 15:52:51;;;;;;;4.32;2.45;;;;;;;19.97;61.77;101830.81;4948150;28;20095;-92
2023/07/17 15:55:17;;;;;;;4.63;2.40;;;;;;;19.98;61.26;101825.44;4948127;29;20062;-91
2023/07/17 15:57:44;;;;;;;4.35;2.33;;;;;;;20.05;61.31;101828.63;4947326;28;20492;-93
2023/07/17 16:00:10;;;;;;;4.25;2.25;;;;;;;20.12;58.34;101837.97;4951315;29;20019;-93
2023/07/17 16:02:46;;;;;;;4.22;2.30;;;;;;;20.35;56.70;101840.38;4934798;29;20027;-93
2023/07/17 16:05:11;;;;;;;5.38;2.90;;;;;;;20.60;61.21;101840.78;4945532;29;20464;-92
2023/07/17 16:07:36;;;;;;;5.95;2.08;;;;;;;20.84;57.02;101844.88;4929347;29;20027;-93
2023/07/17 16:10:06;;;;;;;3.47;1.73;;;;;;;20.97;52.58;101853.03;4930740;29;20604;-94
2023/07/17 16:12:34;;;;;;;5.47;1.90;;;;;;;20.99;50.05;101845.88;4928529;29;20043;-94
2023/07/17 16:15:00;;;;;;;3.90;1.70;;;;;;;20.99;50.20;101841.44;4933314;29;20027;-94
2023/07/17 16:17:25;;;;;;;4.43;1.60;;;;;;;21.02;49.45;101846.53;4931199;29;20519;-92
2023/07/17 16:19:51;;;;;;;3.75;1.52;;;;;;;21.40;50.13;101834.81;4945524;29;20114;-94
2023/07/17 16:22:17;;;;;;;3.17;1.77;;;;;;;21.82;49.20;101835.97;4947940;29;20708;-93
2023/07/17 16:24:43;;;;;;;5.70;1.90;;;;;;;22.31;48.73;101830.53;4932722;29;20027;-95
2023/07/17 16:27:08;;;;;;;4.78;1.80;;;;;;;22.69;47.96;101841.50;4929850;29;20114;-93
2023/07/17 16:29:41;;;;;;;3.67;1.30;;;;;;;22.93;45.14;101842.72;4948339;29;20467;-92
2023/07/17 16:32:32;;;;;;;2.88;1.42;;;;;;;23.07;47.06;101839.22;4950229;29;20429;-96
2023/07/17 16:35:00;;;;;;;3.33;1.38;;;;;;;23.25;43.10;101858.44;4937465;28;20039;-94
2023/07/17 16:37:31;;;;;;;4.05;1.30;;;;;;;23.39;43.15;101844.31;4927746;29;20376;-95
2023/07/17 16:39:56;;;;;;;2.73;1.37;;;;;;;23.70;42.49;101840.50;4951767;29;20019;-90
2023/07/17 16:44:52;;;;;;;2.13;1.10;;;;;;;24.89;39.75;101849.41;4972482;28;20065;-93
2023/07/17 16:47:23;;;;;;;2.83;1.30;;;;;;;25.04;40.03;101855.44;4970480;28;20435;-95
2023/07/17 16:53:32;;;;;;;2.50;1.30;;;;;;;24.74;42.20;101848.69;4945010;28;20122;-95
2023/07/17 16:57:07;;;;;;;;;;;;;;;;;;;;;
2023/07/17 16:59:45;;;;;;;2.55;1.20;;;;;;;25.71;37.19;101843.53;4888216;29;20390;-96
2023/07/17 17:02:28;;;;;;;4.82;1.60;;;;;;;25.80;39.19;101842.81;4885644;29;20037;-95
2023/07/17 17:05:19;;;;;;;;;;;;;;;;;;;;;
2023/07/17 17:07:53;;;;;;;3.53;1.30;;;;;;;26.46;38.36;101844.13;4949773;28;20324;-96
2023/07/17 17:10:18;;;;;;;2.28;1.20;;;;;;;27.51;34.77;101846.50;4971390;28;20028;-94
2023/07/17 17:12:45;;;;;;;2.13;1.20;;;;;;;28.31;33.31;101844.34;4948649;28;20038;-94
2023/07/17 17:15:30;;;;;;;3.50;1.58;;;;;;;29.33;33.94;101850.63;4927953;28;20023;-95
2023/07/17 17:18:45;;;;;;;;;;;;;;;;;;;;;
2023/07/17 17:21:11;;;;;;;2.17;1.10;;;;;;;32.36;27.30;101846.78;4890375;29;20102;-95
2023/07/17 17:23:36;;;;;;;2.47;1.20;;;;;;;33.08;26.29;101845.56;4916974;28;20051;-95
2023/07/17 17:26:25;;;;;;;2.45;1.27;;;;;;;33.93;27.70;101848.22;4941697;28;20046;-96
2023/07/17 17:29:35;;;;;;;3.08;1.15;;;;;;;34.78;27.57;101846.81;4947730;28;20039;-96
2023/07/17 17:32:09;;;;;;;2.30;1.05;;;;;;;35.50;26.34;101845.75;4959245;28;20081;-95
2023/07/17 17:34:56;;;;;;;;;;;;;;;;;;;;;
2023/07/17 17:38:01;;;;;;;;;;;;;;;;;;;;;
2023/07/17 17:40:28;;;;;;;3.78;1.02;;;;;;;36.15;19.98;101848.06;4948560;28;20053;-96
2023/07/17 17:43:00;;;;;;;2.67;0.75;;;;;;;36.39;19.68;101849.63;4928612;28;20047;-96
2023/07/17 17:45:36;;;;;;;3.50;0.90;;;;;;;36.54;19.54;101857.81;4927634;28;20055;-96
2023/07/17 17:48:11;;;;;;;;;;;;;;;;;;;;;
2023/07/17 17:50:37;;;;;;;3.45;0.93;;;;;;;36.33;19.54;101863.97;4946904;28;20031;-93
2023/07/17 17:53:04;;;;;;;3.35;0.88;;;;;;;36.33;19.36;101866.66;4947180;28;20045;-95
2023/07/17 17:55:32;;;;;;;1.48;0.68;;;;;;;36.44;19.77;101862.66;4949874;28;20062;-96
2023/07/17 17:58:51;;;;;;;2.00;0.70;;;;;;;36.30;22.60;101867.03;4953630;28;20035;-96
2023/07/17 18:05:26;;;;;;;;;;;;;;;;;;;;;
2023/07/17 18:08:11;;;;;;;1.85;0.80;;;;;;;36.38;22.57;101866.94;4900831;29;20044;-96
2023/07/17 18:16:40;;;;;;;2.55;0.90;;;;;;;36.66;21.62;101860.88;5188514;23;20062;-96
2023/07/17 18:19:27;;;;;;;3.15;0.77;;;;;;;35.40;22.35;101877.59;4962595;28;20074;-95
2023/07/17 18:21:59;;;;;;;2.63;0.85;;;;;;;33.50;23.50;101886.13;4962143;28;20042;-94
2023/07/17 18:24:35;;;;;;;2.47;0.63;;;;;;;31.94;25.45;101885.97;4976239;28;20392;-94
2023/07/17 18:27:03;;;;;;;2.33;0.93;;;;;;;30.77;26.37;101884.00;4976029;28;20109;-93
2023/07/17 18:32:04;;;;;;;2.33;0.70;;;;;;;28.93;28.88;101891.72;4116732;23;20050;-95
2023/07/17 18:34:33;;;;;;;1.65;0.77;;;;;;;28.15;29.87;101902.81;4968238;28;20029;-95
2023/07/17 18:37:03;;;;;;;2.42;0.75;;;;;;;27.33;30.88;101899.59;4970673;28;20173;-94
2023/07/17 18:39:29;;;;;;;2.13;0.70;;;;;;;26.67;32.24;101905.66;4991372;28;20224;-96
2023/07/17 18:41:59;;;;;;;4.72;1.08;;;;;;;26.27;33.32;101903.41;4976488;28;20113;-94
2023/07/17 18:44:24;;;;;;;2.38;0.75;;;;;;;25.91;33.08;101914.88;4976137;28;20097;-95
2023/07/17 18:46:51;;;;;;;1.83;0.70;;;;;;;25.56;34.32;101907.66;4975030;28;20125;-95
2023/07/17 18:57:38;;;;;;;;;;;;;;;;;;;;;
2023/07/17 19:00:12;;;;;;;1.90;0.52;;;;;;;23.96;35.28;101907.00;4976787;28;20042;-94
2023/07/17 19:02:42;;;;;;;2.13;0.50;;;;;;;23.65;35.17;101909.84;4974817;28;20034;-95
2023/07/17 19:05:12;;;;;;;1.35;0.50;;;;;;;23.44;36.06;101914.75;4974134;28;20062;-94
2023/07/17 19:08:24;;;;;;;;;;;;;;;;;;;;;
2023/07/17 19:11:14;;;;;;;;;;;;;;;;;;;;;
2023/07/17 19:24:59;;;;;;;1.20;0.50;;;;;;;22.72;38.09;101952.72;5071655;23;20050;-95
2023/07/17 19:27:27;;;;;;;2.42;0.60;;;;;;;22.51;38.64;101954.00;4990355;28;20513;-93
2023/07/17 19:29:53;;;;;;;0.95;0.50;;;;;;;22.36;39.03;101956.56;4990591;28;20037;-94
2023/07/17 19:32:22;;;;;;;4.75;0.50;;;;;;;22.23;39.31;101956.41;4985881;28;20030;-93
2023/07/17 19:34:55;;;;;;;1.88;0.60;;;;;;;22.10;39.71;101966.03;4986554;28;20502;-95
2023/07/17 19:37:46;;;;;;;0.93;0.40;;;;;;;21.98;39.67;101968.44;4989275;28;20033;-95
2023/07/17 19:40:12;;;;;;;;;;;;;;;21.99;39.27;101969.28;4987132;28;20046;-96
2023/07/17 19:52:54;;;;;;;1.98;0.70;;;;;;;21.06;43.42;101985.69;5008035;28;20046;-94
2023/07/17 19:55:48;;;;;;;2.15;0.70;;;;;;;20.91;44.57;101979.41;4990767;28;20036;-95
2023/07/17 19:58:20;;;;;;;1.63;0.45;;;;;;;20.83;44.01;101986.03;4987677;28;20046;-95
2023/07/17 20:01:23;;;;;;;;;;;;;;;;;;;;;
2023/07/17 20:04:10;;;;;;;2.70;0.70;;;;;;;20.64;45.72;101989.56;4994847;28;20029;-96
2023/07/17 20:06:46;;;;;;;;;;;;;;;;;;;;;
2023/07/17 20:12:32;;;;;;;1.17;0.50;;;;;;;20.31;46.94;101993.78;5084344;23;20062;-94
2023/07/17 20:15:07;;;;;;;1.15;0.60;;;;;;;20.19;47.82;101996.16;4967428;28;20006;-96
2023/07/17 20:17:35;;;;;;;1.55;0.65;;;;;;;20.11;47.25;102001.81;4988264;28;20070;-94
2023/07/17 20:20:01;;;;;;;1.17;0.60;;;;;;;19.95;48.48;101991.13;4969836;28;20419;-93
2023/07/17 20:22:29;;;;;;;1.55;0.70;;;;;;;19.78;47.96;101994.53;4983619;28;20818;-94
2023/07/17 20:25:08;;;;;;;;;;;;;;;;;;;;;
2023/07/17 20:30:54;;;;;;;;;;;;;;;;;;;;;
2023/07/17 20:33:25;;;;;;;2.05;0.70;;;;;;;19.04;50.74;102003.94;4982786;28;20027;-94
2023/07/17 20:36:00;;;;;;;2.15;0.90;;;;;;;18.91;51.56;102009.72;4983108;28;20481;-94
2023/07/17 20:38:37;;;;;;;;;;;;;;;;;;;;;
2023/07/17 20:46:57;;;;;;;1.85;0.60;;;;;;;18.53;51.94;102011.31;5341619;23;20055;-95
2023/07/17 20:49:25;;;;;;;1.80;0.80;;;;;;;18.42;54.70;102012.59;4968153;28;20089;-94
2023/07/17 20:51:50;;;;;;;2.28;0.60;;;;;;;18.34;54.28;102020.81;4964232;28;20030;-94
2023/07/17 21:02:17;;;;;;;1.83;0.80;;;;;;;18.05;54.81;102020.19;5154458;23;20067;-94
2023/07/17 21:04:52;;;;;;;2.53;0.80;;;;;;;17.93;55.03;102025.00;4960240;28;20042;-93
2023/07/17 21:07:18;;;;;;;1.30;0.60;;;;;;;17.81;56.00;102021.06;4942745;28;20035;-92
2023/07/17 21:09:47;;;;;;;2.25;1.00;;;;;;;17.69;56.44;102015.34;4957851;28;20049;-92
2023/07/17 21:12:33;;;;;;;2.55;0.77;;;;;;;17.60;56.75;102013.03;4962762;28;20419;-93
2023/07/17 21:15:16;;;;;;;;;;;;;;;;;;;;;
2023/07/17 21:17:42;;;;;;;2.58;0.80;;;;;;;17.48;57.57;102024.03;5040389;23;20051;-94
2023/07/17 21:20:08;;;;;;;2.83;0.93;;;;;;;17.45;57.85;102020.59;4953912;28;20447;-92
2023/07/17 21:22:36;;;;;;;1.13;0.75;;;;;;;17.38;57.43;102026.13;4956830;28;20043;-91
2023/07/17 21:25:02;;;;;;;2.25;0.85;;;;;;;17.32;58.36;102026.34;4960411;28;20018;-89
2023/07/17 21:27:30;;;;;;;2.83;0.80;;;;;;;17.27;58.52;102023.88;4963387;28;20174;-88
2023/07/17 21:29:55;;;;;;;2.30;0.73;;;;;;;17.16;58.79;102023.38;4972749;28;20027;-92
2023/07/17 21:32:20;;;;;;;1.52;0.70;;;;;;;17.05;58.29;102027.25;4966555;28;20046;-91
2023/07/17 21:34:46;;;;;;;2.80;0.82;;;;;;;16.95;57.99;102025.84;4970802;28;20106;-92
2023/07/17 23:38:14;;;;;;;;;;;;;;;;;;;;;